sensor_id;sensor_type;location;lat;lon;timestamp;pressure;altitude;pressure_sealevel;temperature;humidity
70833;BME280;58452;59.418;17.962;2023-02-18T00:01:39;97884.31;;;3.54;100.00
70833;BME280;58452;59.418;17.962;2023-02-18T00:04:05;97882.13;;;3.43;100.00
70833;BME280;58452;59.418;17.962;2023-02-18T00:06:32;97894.25;;;3.41;100.00
70833;BME280;58452;59.418;17.962;2023-02-18T00:08:59;97894.91;;;3.35;100.00
70833;BME280;58452;59.418;17.962;2023-02-18T00:11:28;97896.34;;;3.37;100.00
70833;BME280;58452;59.418;17.962;2023-02-18T00:13:59;97897.44;;;3.35;100.00
70833;BME280;58452;59.418;17.962;2023-02-18T00:16:27;97906.84;;;3.34;100.00
70833;BME280;58452;59.418;17.962;2023-02-18T00:18:57;97910.19;;;3.35;100.00
70833;BME280;58452;59.418;17.962;2023-02-18T00:21:23;97920.06;;;3.38;100.00
70833;BME280;58452;59.418;17.962;2023-02-18T00:23:48;97919.28;;;3.37;100.00
70833;BME280;58452;59.418;17.962;2023-02-18T00:26:16;97916.88;;;3.36;100.00
70833;BME280;58452;59.418;17.962;2023-02-18T00:28:42;97927.09;;;3.36;100.00
70833;BME280;58452;59.418;17.962;2023-02-18T00:31:13;97926.75;;;3.39;100.00
70833;BME280;58452;59.418;17.962;2023-02-18T00:33:39;97942.38;;;3.36;100.00
70833;BME280;58452;59.418;17.962;2023-02-18T00:36:09;97940.50;;;3.30;100.00
70833;BME280;58452;59.418;17.962;2023-02-18T00:38:35;97936.97;;;3.31;100.00
70833;BME280;58452;59.418;17.962;2023-02-18T00:41:00;97949.72;;;3.31;100.00
70833;BME280;58452;59.418;17.962;2023-02-18T00:43:27;97958.00;;;3.33;100.00
70833;BME280;58452;59.418;17.962;2023-02-18T00:45:53;97955.28;;;3.34;100.00
70833;BME280;58452;59.418;17.962;2023-02-18T00:48:18;97967.75;;;3.29;100.00
70833;BME280;58452;59.418;17.962;2023-02-18T00:50:44;97970.28;;;3.21;99.91
70833;BME280;58452;59.418;17.962;2023-02-18T00:53:10;97988.16;;;3.13;100.00
70833;BME280;58452;59.418;17.962;2023-02-18T00:55:42;97989.28;;;3.11;100.00
70833;BME280;58452;59.418;17.962;2023-02-18T00:58:08;97997.06;;;3.09;100.00
70833;BME280;58452;59.418;17.962;2023-02-18T01:00:34;97996.91;;;3.03;100.00
70833;BME280;58452;59.418;17.962;2023-02-18T01:02:59;98006.16;;;3.04;100.00
70833;BME280;58452;59.418;17.962;2023-02-18T01:05:25;98012.34;;;3.01;100.00
70833;BME280;58452;59.418;17.962;2023-02-18T01:07:50;98011.72;;;2.99;100.00
70833;BME280;58452;59.418;17.962;2023-02-18T01:10:16;98018.75;;;2.97;100.00
70833;BME280;58452;59.418;17.962;2023-02-18T01:12:42;98011.91;;;2.89;99.97
70833;BME280;58452;59.418;17.962;2023-02-18T01:15:08;98027.34;;;2.88;99.59
70833;BME280;58452;59.418;17.962;2023-02-18T01:17:35;98027.81;;;2.59;98.55
70833;BME280;58452;59.418;17.962;2023-02-18T01:20:00;98032.53;;;2.46;98.83
70833;BME280;58452;59.418;17.962;2023-02-18T01:22:26;98043.03;;;2.43;99.21
70833;BME280;58452;59.418;17.962;2023-02-18T01:24:51;98044.28;;;2.39;99.39
70833;BME280;58452;59.418;17.962;2023-02-18T01:27:17;98049.22;;;2.32;98.73
70833;BME280;58452;59.418;17.962;2023-02-18T01:29:42;98057.63;;;2.25;98.83
70833;BME280;58452;59.418;17.962;2023-02-18T01:32:08;98059.22;;;2.26;98.63
70833;BME280;58452;59.418;17.962;2023-02-18T01:34:33;98060.13;;;2.17;98.15
70833;BME280;58452;59.418;17.962;2023-02-18T01:36:58;98070.03;;;2.20;97.87
70833;BME280;58452;59.418;17.962;2023-02-18T01:39:24;98069.34;;;2.10;97.68
70833;BME280;58452;59.418;17.962;2023-02-18T01:41:49;98077.94;;;2.09;97.53
70833;BME280;58452;59.418;17.962;2023-02-18T01:44:21;98089.31;;;1.96;97.44
70833;BME280;58452;59.418;17.962;2023-02-18T01:46:46;98103.59;;;1.89;97.18
70833;BME280;58452;59.418;17.962;2023-02-18T01:49:16;98111.19;;;1.81;97.71
70833;BME280;58452;59.418;17.962;2023-02-18T01:51:49;98112.09;;;1.72;96.13
70833;BME280;58452;59.418;17.962;2023-02-18T01:56:51;98134.22;;;1.54;95.74
70833;BME280;58452;59.418;17.962;2023-02-18T01:59:23;98143.97;;;1.41;96.08
70833;BME280;58452;59.418;17.962;2023-02-18T02:01:50;98143.88;;;1.33;96.29
70833;BME280;58452;59.418;17.962;2023-02-18T02:04:16;98143.53;;;1.28;96.10
70833;BME280;58452;59.418;17.962;2023-02-18T02:06:42;98150.19;;;1.29;97.15
70833;BME280;58452;59.418;17.962;2023-02-18T02:09:10;98152.09;;;1.27;96.91
70833;BME280;58452;59.418;17.962;2023-02-18T02:11:40;98155.06;;;1.22;96.85
70833;BME280;58452;59.418;17.962;2023-02-18T02:14:15;98152.69;;;1.21;96.72
70833;BME280;58452;59.418;17.962;2023-02-18T02:33:17;98184.94;;;0.75;96.42
70833;BME280;58452;59.418;17.962;2023-02-18T02:35:58;98185.66;;;0.68;96.91
70833;BME280;58452;59.418;17.962;2023-02-18T02:38:37;98195.28;;;0.64;96.76
70833;BME280;58452;59.418;17.962;2023-02-18T02:41:09;98193.97;;;0.60;97.73
70833;BME280;58452;59.418;17.962;2023-02-18T02:54:15;98214.56;;;0.57;97.96
70833;BME280;58452;59.418;17.962;2023-02-18T02:56:41;98222.81;;;0.59;97.82
70833;BME280;58452;59.418;17.962;2023-02-18T02:59:19;98221.25;;;0.58;97.32
70833;BME280;58452;59.418;17.962;2023-02-18T03:18:40;98255.38;;;0.64;96.36
70833;BME280;58452;59.418;17.962;2023-02-18T03:21:11;98258.72;;;0.64;96.44
70833;BME280;58452;59.418;17.962;2023-02-18T03:23:48;98263.16;;;0.62;96.78
70833;BME280;58452;59.418;17.962;2023-02-18T03:26:18;98270.09;;;0.60;96.57
70833;BME280;58452;59.418;17.962;2023-02-18T03:28:48;98272.00;;;0.58;96.55
70833;BME280;58452;59.418;17.962;2023-02-18T03:31:18;98276.38;;;0.56;97.34
70833;BME280;58452;59.418;17.962;2023-02-18T03:33:49;98276.66;;;0.53;97.55
70833;BME280;58452;59.418;17.962;2023-02-18T03:36:18;98291.25;;;0.51;97.28
70833;BME280;58452;59.418;17.962;2023-02-18T03:41:48;98305.16;;;0.47;97.55
70833;BME280;58452;59.418;17.962;2023-02-18T03:44:14;98310.50;;;0.44;97.65
70833;BME280;58452;59.418;17.962;2023-02-18T03:46:41;98312.63;;;0.39;97.88
70833;BME280;58452;59.418;17.962;2023-02-18T03:49:08;98312.63;;;0.39;98.32
70833;BME280;58452;59.418;17.962;2023-02-18T03:51:34;98332.94;;;0.39;98.42
70833;BME280;58452;59.418;17.962;2023-02-18T03:54:00;98329.47;;;0.40;98.89
70833;BME280;58452;59.418;17.962;2023-02-18T03:56:25;98331.03;;;0.41;98.65
70833;BME280;58452;59.418;17.962;2023-02-18T03:58:51;98334.53;;;0.40;98.58
70833;BME280;58452;59.418;17.962;2023-02-18T04:01:16;98333.84;;;0.38;98.69
70833;BME280;58452;59.418;17.962;2023-02-18T04:03:42;98341.47;;;0.38;98.43
70833;BME280;58452;59.418;17.962;2023-02-18T04:06:07;98358.56;;;0.36;98.84
70833;BME280;58452;59.418;17.962;2023-02-18T04:08:34;98354.16;;;0.38;98.40
70833;BME280;58452;59.418;17.962;2023-02-18T04:10:59;98365.91;;;0.39;97.97
70833;BME280;58452;59.418;17.962;2023-02-18T04:13:26;98366.56;;;0.41;98.24
70833;BME280;58452;59.418;17.962;2023-02-18T04:15:51;98371.09;;;0.37;97.82
70833;BME280;58452;59.418;17.962;2023-02-18T04:18:17;98374.03;;;0.42;98.17
70833;BME280;58452;59.418;17.962;2023-02-18T04:20:43;98369.78;;;0.43;98.00
70833;BME280;58452;59.418;17.962;2023-02-18T04:23:10;98384.72;;;0.46;97.90
70833;BME280;58452;59.418;17.962;2023-02-18T04:25:36;98376.19;;;0.47;97.67
70833;BME280;58452;59.418;17.962;2023-02-18T04:28:02;98385.53;;;0.46;97.53
70833;BME280;58452;59.418;17.962;2023-02-18T04:30:27;98391.41;;;0.47;97.42
70833;BME280;58452;59.418;17.962;2023-02-18T04:32:53;98398.06;;;0.48;97.29
70833;BME280;58452;59.418;17.962;2023-02-18T04:35:19;98395.53;;;0.48;97.41
70833;BME280;58452;59.418;17.962;2023-02-18T04:37:44;98399.69;;;0.49;97.09
70833;BME280;58452;59.418;17.962;2023-02-18T04:40:10;98419.31;;;0.47;97.31
70833;BME280;58452;59.418;17.962;2023-02-18T04:42:35;98416.50;;;0.50;97.04
70833;BME280;58452;59.418;17.962;2023-02-18T04:45:01;98435.19;;;0.49;96.99
70833;BME280;58452;59.418;17.962;2023-02-18T04:47:26;98437.72;;;0.49;96.86
70833;BME280;58452;59.418;17.962;2023-02-18T04:49:52;98436.81;;;0.50;96.51
70833;BME280;58452;59.418;17.962;2023-02-18T04:52:17;98451.75;;;0.53;96.88
70833;BME280;58452;59.418;17.962;2023-02-18T04:54:43;98466.34;;;0.51;96.47
70833;BME280;58452;59.418;17.962;2023-02-18T04:57:09;98458.44;;;0.54;96.98
70833;BME280;58452;59.418;17.962;2023-02-18T04:59:34;98463.53;;;0.54;95.79
70833;BME280;58452;59.418;17.962;2023-02-18T05:02:00;98473.66;;;0.54;96.44
70833;BME280;58452;59.418;17.962;2023-02-18T05:04:26;98478.75;;;0.54;95.89
70833;BME280;58452;59.418;17.962;2023-02-18T05:06:51;98485.41;;;0.55;95.83
70833;BME280;58452;59.418;17.962;2023-02-18T05:09:17;98486.34;;;0.54;95.69
70833;BME280;58452;59.418;17.962;2023-02-18T05:11:42;98497.31;;;0.55;96.09
70833;BME280;58452;59.418;17.962;2023-02-18T05:14:08;98515.63;;;0.58;96.07
70833;BME280;58452;59.418;17.962;2023-02-18T05:16:33;98507.03;;;0.59;95.67
70833;BME280;58452;59.418;17.962;2023-02-18T05:19:00;98515.09;;;0.55;95.95
70833;BME280;58452;59.418;17.962;2023-02-18T05:21:26;98516.13;;;0.52;96.42
70833;BME280;58452;59.418;17.962;2023-02-18T05:23:51;98521.47;;;0.49;97.05
70833;BME280;58452;59.418;17.962;2023-02-18T05:26:17;98520.41;;;0.52;95.77
70833;BME280;58452;59.418;17.962;2023-02-18T05:28:42;98520.16;;;0.55;95.94
70833;BME280;58452;59.418;17.962;2023-02-18T05:31:07;98535.38;;;0.55;94.67
70833;BME280;58452;59.418;17.962;2023-02-18T05:33:33;98551.16;;;0.58;95.06
70833;BME280;58452;59.418;17.962;2023-02-18T05:35:58;98539.91;;;0.61;94.45
70833;BME280;58452;59.418;17.962;2023-02-18T05:38:24;98548.72;;;0.57;94.77
70833;BME280;58452;59.418;17.962;2023-02-18T05:40:49;98545.13;;;0.59;94.45
70833;BME280;58452;59.418;17.962;2023-02-18T05:43:15;98545.78;;;0.61;93.78
70833;BME280;58452;59.418;17.962;2023-02-18T05:45:40;98549.78;;;0.64;94.21
70833;BME280;58452;59.418;17.962;2023-02-18T05:48:06;98565.84;;;0.64;93.88
70833;BME280;58452;59.418;17.962;2023-02-18T05:50:31;98564.91;;;0.65;94.17
70833;BME280;58452;59.418;17.962;2023-02-18T05:52:57;98565.03;;;0.64;93.89
70833;BME280;58452;59.418;17.962;2023-02-18T05:55:23;98577.88;;;0.62;94.25
70833;BME280;58452;59.418;17.962;2023-02-18T05:57:49;98584.53;;;0.63;94.42
70833;BME280;58452;59.418;17.962;2023-02-18T06:00:15;98590.41;;;0.64;94.16
70833;BME280;58452;59.418;17.962;2023-02-18T06:02:41;98597.91;;;0.65;94.36
70833;BME280;58452;59.418;17.962;2023-02-18T06:05:07;98605.78;;;0.62;94.82
70833;BME280;58452;59.418;17.962;2023-02-18T06:07:32;98623.66;;;0.61;94.56
70833;BME280;58452;59.418;17.962;2023-02-18T06:09:58;98620.31;;;0.60;94.72
70833;BME280;58452;59.418;17.962;2023-02-18T06:12:23;98630.22;;;0.63;94.17
70833;BME280;58452;59.418;17.962;2023-02-18T06:14:49;98630.91;;;0.65;93.38
70833;BME280;58452;59.418;17.962;2023-02-18T06:17:14;98644.41;;;0.66;94.07
70833;BME280;58452;59.418;17.962;2023-02-18T06:19:40;98640.63;;;0.70;93.72
70833;BME280;58452;59.418;17.962;2023-02-18T06:22:06;98645.88;;;0.68;93.22
70833;BME280;58452;59.418;17.962;2023-02-18T06:24:32;98649.22;;;0.69;93.34
70833;BME280;58452;59.418;17.962;2023-02-18T06:26:58;98668.44;;;0.71;93.40
70833;BME280;58452;59.418;17.962;2023-02-18T06:29:24;98650.69;;;0.71;93.30
70833;BME280;58452;59.418;17.962;2023-02-18T06:31:50;98658.56;;;0.68;93.26
70833;BME280;58452;59.418;17.962;2023-02-18T06:34:15;98660.03;;;0.71;92.91
70833;BME280;58452;59.418;17.962;2023-02-18T06:36:41;98667.38;;;0.74;92.44
70833;BME280;58452;59.418;17.962;2023-02-18T06:39:06;98684.38;;;0.73;93.01
70833;BME280;58452;59.418;17.962;2023-02-18T06:41:32;98674.22;;;0.73;93.25
70833;BME280;58452;59.418;17.962;2023-02-18T06:43:58;98679.28;;;0.73;93.25
70833;BME280;58452;59.418;17.962;2023-02-18T06:46:23;98688.50;;;0.74;93.27
70833;BME280;58452;59.418;17.962;2023-02-18T06:48:49;98692.75;;;0.74;92.79
70833;BME280;58452;59.418;17.962;2023-02-18T06:51:14;98696.91;;;0.75;92.90
70833;BME280;58452;59.418;17.962;2023-02-18T06:53:44;98703.97;;;0.71;93.21
70833;BME280;58452;59.418;17.962;2023-02-18T06:56:10;98707.06;;;0.75;92.39
70833;BME280;58452;59.418;17.962;2023-02-18T06:58:36;98711.22;;;0.76;92.37
70833;BME280;58452;59.418;17.962;2023-02-18T07:01:01;98714.56;;;0.76;92.91
70833;BME280;58452;59.418;17.962;2023-02-18T07:03:27;98724.56;;;0.78;91.98
70833;BME280;58452;59.418;17.962;2023-02-18T07:05:52;98735.03;;;0.84;91.86
70833;BME280;58452;59.418;17.962;2023-02-18T07:08:18;98739.53;;;0.81;92.43
70833;BME280;58452;59.418;17.962;2023-02-18T07:10:43;98741.41;;;0.79;92.59
70833;BME280;58452;59.418;17.962;2023-02-18T07:13:10;98745.84;;;0.77;92.50
70833;BME280;58452;59.418;17.962;2023-02-18T07:15:35;98769.47;;;0.77;92.03
70833;BME280;58452;59.418;17.962;2023-02-18T07:18:01;98753.31;;;0.78;91.41
70833;BME280;58452;59.418;17.962;2023-02-18T07:20:32;98746.50;;;0.79;91.61
70833;BME280;58452;59.418;17.962;2023-02-18T07:22:59;98750.78;;;0.78;91.62
70833;BME280;58452;59.418;17.962;2023-02-18T07:25:25;98770.81;;;0.81;90.88
70833;BME280;58452;59.418;17.962;2023-02-18T07:27:50;98762.16;;;0.84;90.57
70833;BME280;58452;59.418;17.962;2023-02-18T07:30:17;98767.34;;;0.82;89.54
70833;BME280;58452;59.418;17.962;2023-02-18T07:32:43;98768.97;;;0.83;89.85
70833;BME280;58452;59.418;17.962;2023-02-18T07:35:09;98785.81;;;0.84;90.00
70833;BME280;58452;59.418;17.962;2023-02-18T07:37:37;98794.38;;;0.83;89.52
70833;BME280;58452;59.418;17.962;2023-02-18T07:40:02;98790.91;;;0.84;89.50
70833;BME280;58452;59.418;17.962;2023-02-18T07:42:28;98790.91;;;0.84;89.46
70833;BME280;58452;59.418;17.962;2023-02-18T07:44:53;98794.38;;;0.83;89.15
70833;BME280;58452;59.418;17.962;2023-02-18T07:47:19;98792.47;;;0.85;89.16
70833;BME280;58452;59.418;17.962;2023-02-18T07:49:45;98813.06;;;0.82;88.95
70833;BME280;58452;59.418;17.962;2023-02-18T07:52:11;98804.50;;;0.83;89.29
70833;BME280;58452;59.418;17.962;2023-02-18T07:54:37;98809.59;;;0.83;88.75
70833;BME280;58452;59.418;17.962;2023-02-18T07:57:03;98811.22;;;0.84;89.52
70833;BME280;58452;59.418;17.962;2023-02-18T07:59:28;98825.09;;;0.80;88.97
70833;BME280;58452;59.418;17.962;2023-02-18T08:01:54;98825.75;;;0.82;89.32
70833;BME280;58452;59.418;17.962;2023-02-18T08:04:19;98830.94;;;0.81;87.95
70833;BME280;58452;59.418;17.962;2023-02-18T08:06:46;98829.91;;;0.83;89.41
70833;BME280;58452;59.418;17.962;2023-02-18T08:09:14;98847.78;;;0.82;88.92
70833;BME280;58452;59.418;17.962;2023-02-18T08:11:40;98840.06;;;0.83;89.36
70833;BME280;58452;59.418;17.962;2023-02-18T08:14:06;98842.47;;;0.85;88.33
70833;BME280;58452;59.418;17.962;2023-02-18T08:16:31;98853.56;;;0.84;87.39
70833;BME280;58452;59.418;17.962;2023-02-18T08:18:57;98860.94;;;0.87;88.48
70833;BME280;58452;59.418;17.962;2023-02-18T08:21:24;98856.91;;;0.84;88.68
70833;BME280;58452;59.418;17.962;2023-02-18T08:23:49;98859.47;;;0.84;88.74
70833;BME280;58452;59.418;17.962;2023-02-18T08:26:15;98867.75;;;0.86;88.58
70833;BME280;58452;59.418;17.962;2023-02-18T08:28:45;98876.97;;;0.87;88.42
70833;BME280;58452;59.418;17.962;2023-02-18T08:31:22;98882.06;;;0.87;88.47
70833;BME280;58452;59.418;17.962;2023-02-18T08:33:49;98878.56;;;0.88;87.76
70833;BME280;58452;59.418;17.962;2023-02-18T08:36:15;98881.78;;;0.90;88.30
70833;BME280;58452;59.418;17.962;2023-02-18T08:38:40;98885.00;;;0.92;88.10
70833;BME280;58452;59.418;17.962;2023-02-18T08:41:07;98884.75;;;0.95;87.52
70833;BME280;58452;59.418;17.962;2023-02-18T08:43:33;98890.06;;;0.92;86.94
70833;BME280;58452;59.418;17.962;2023-02-18T08:45:59;98895.84;;;0.94;87.38
70833;BME280;58452;59.418;17.962;2023-02-18T08:48:25;98903.22;;;0.97;87.52
70833;BME280;58452;59.418;17.962;2023-02-18T08:50:51;98899.50;;;1.02;87.46
70833;BME280;58452;59.418;17.962;2023-02-18T08:53:17;98905.63;;;0.99;87.20
70833;BME280;58452;59.418;17.962;2023-02-18T08:55:43;98909.66;;;1.02;86.61
70833;BME280;58452;59.418;17.962;2023-02-18T08:58:09;98921.19;;;1.06;85.96
70833;BME280;58452;59.418;17.962;2023-02-18T09:00:35;98915.56;;;1.12;86.68
70833;BME280;58452;59.418;17.962;2023-02-18T09:03:00;98931.50;;;1.14;85.30
70833;BME280;58452;59.418;17.962;2023-02-18T09:05:26;98931.88;;;1.09;85.63
70833;BME280;58452;59.418;17.962;2023-02-18T09:07:52;98937.00;;;1.19;85.59
70833;BME280;58452;59.418;17.962;2023-02-18T09:10:17;98937.00;;;1.19;85.80
70833;BME280;58452;59.418;17.962;2023-02-18T09:12:43;98932.84;;;1.18;85.56
70833;BME280;58452;59.418;17.962;2023-02-18T09:15:08;98959.75;;;1.20;84.68
70833;BME280;58452;59.418;17.962;2023-02-18T09:17:34;98953.91;;;1.29;85.61
70833;BME280;58452;59.418;17.962;2023-02-18T09:19:59;98951.00;;;1.34;84.76
70833;BME280;58452;59.418;17.962;2023-02-18T09:22:25;98954.44;;;1.33;84.54
70833;BME280;58452;59.418;17.962;2023-02-18T09:24:50;98961.59;;;1.39;84.88
70833;BME280;58452;59.418;17.962;2023-02-18T09:27:16;98980.97;;;1.40;84.15
70833;BME280;58452;59.418;17.962;2023-02-18T09:29:42;98969.88;;;1.41;84.22
70833;BME280;58452;59.418;17.962;2023-02-18T09:32:08;98981.50;;;1.43;84.78
70833;BME280;58452;59.418;17.962;2023-02-18T09:34:35;98987.41;;;1.44;83.37
70833;BME280;58452;59.418;17.962;2023-02-18T09:37:01;98993.19;;;1.46;84.27
70833;BME280;58452;59.418;17.962;2023-02-18T09:39:27;98992.00;;;1.50;83.00
70833;BME280;58452;59.418;17.962;2023-02-18T09:42:01;98992.00;;;1.50;83.63
70833;BME280;58452;59.418;17.962;2023-02-18T09:44:32;98996.13;;;1.51;83.82
70833;BME280;58452;59.418;17.962;2023-02-18T09:49:38;99002.84;;;1.52;83.82
70833;BME280;58452;59.418;17.962;2023-02-18T09:52:29;99005.38;;;1.52;82.88
70833;BME280;58452;59.418;17.962;2023-02-18T09:54:56;99009.28;;;1.56;83.57
70833;BME280;58452;59.418;17.962;2023-02-18T09:57:23;99013.19;;;1.60;83.72
70833;BME280;58452;59.418;17.962;2023-02-18T10:00:00;99016.13;;;1.65;82.76
70833;BME280;58452;59.418;17.962;2023-02-18T10:02:27;99015.66;;;1.71;83.54
70833;BME280;58452;59.418;17.962;2023-02-18T10:04:54;99023.00;;;1.74;82.21
70833;BME280;58452;59.418;17.962;2023-02-18T10:07:28;99023.69;;;1.76;82.19
70833;BME280;58452;59.418;17.962;2023-02-18T10:10:00;99032.81;;;1.79;82.52
70833;BME280;58452;59.418;17.962;2023-02-18T10:12:29;99030.81;;;1.82;83.52
70833;BME280;58452;59.418;17.962;2023-02-18T10:14:59;99034.03;;;1.84;82.22
70833;BME280;58452;59.418;17.962;2023-02-18T10:17:29;99028.66;;;1.87;81.68
70833;BME280;58452;59.418;17.962;2023-02-18T10:19:57;99030.97;;;1.90;81.95
70833;BME280;58452;59.418;17.962;2023-02-18T10:22:25;99029.91;;;1.93;81.27
70833;BME280;58452;59.418;17.962;2023-02-18T10:24:56;99029.53;;;1.98;82.23
70833;BME280;58452;59.418;17.962;2023-02-18T10:29:55;99025.66;;;2.03;80.99
70833;BME280;58452;59.418;17.962;2023-02-18T10:32:36;99039.63;;;2.09;81.52
70833;BME280;58452;59.418;17.962;2023-02-18T10:35:16;99026.47;;;2.13;81.46
70833;BME280;58452;59.418;17.962;2023-02-18T10:37:53;99053.81;;;2.21;80.77
70833;BME280;58452;59.418;17.962;2023-02-18T10:40:37;99049.00;;;2.18;79.93
70833;BME280;58452;59.418;17.962;2023-02-18T10:43:17;99047.91;;;2.20;80.03
70833;BME280;58452;59.418;17.962;2023-02-18T10:51:50;99052.91;;;2.31;80.69
70833;BME280;58452;59.418;17.962;2023-02-18T10:54:17;99057.75;;;2.34;79.76
70833;BME280;58452;59.418;17.962;2023-02-18T10:56:47;99073.97;;;2.43;78.93
70833;BME280;58452;59.418;17.962;2023-02-18T11:01:44;99078.03;;;2.55;77.29
70833;BME280;58452;59.418;17.962;2023-02-18T11:04:18;99074.94;;;2.61;77.20
70833;BME280;58452;59.418;17.962;2023-02-18T11:06:49;99085.28;;;2.69;76.67
70833;BME280;58452;59.418;17.962;2023-02-18T11:09:28;99069.47;;;2.75;75.11
70833;BME280;58452;59.418;17.962;2023-02-18T11:12:03;99069.22;;;2.78;75.50
70833;BME280;58452;59.418;17.962;2023-02-18T11:14:38;99071.88;;;2.86;75.80
70833;BME280;58452;59.418;17.962;2023-02-18T11:17:27;99082.06;;;2.86;74.63
70833;BME280;58452;59.418;17.962;2023-02-18T11:19:59;99083.56;;;2.89;74.78
70833;BME280;58452;59.418;17.962;2023-02-18T11:22:34;99091.75;;;2.92;73.47
70833;BME280;58452;59.418;17.962;2023-02-18T11:25:13;99091.75;;;2.92;74.11
70833;BME280;58452;59.418;17.962;2023-02-18T11:27:50;99105.53;;;2.90;73.84
70833;BME280;58452;59.418;17.962;2023-02-18T11:30:20;99094.31;;;2.92;74.36
70833;BME280;58452;59.418;17.962;2023-02-18T11:32:53;99119.63;;;2.94;74.59
70833;BME280;58452;59.418;17.962;2023-02-18T11:35:23;99117.22;;;2.92;74.46
70833;BME280;58452;59.418;17.962;2023-02-18T11:37:50;99114.94;;;2.89;74.66
70833;BME280;58452;59.418;17.962;2023-02-18T11:40:25;99114.81;;;2.91;74.81
70833;BME280;58452;59.418;17.962;2023-02-18T11:43:02;99126.88;;;2.89;74.98
70833;BME280;58452;59.418;17.962;2023-02-18T11:45:30;99132.25;;;2.86;74.71
70833;BME280;58452;59.418;17.962;2023-02-18T11:48:06;99137.47;;;2.94;76.39
70833;BME280;58452;59.418;17.962;2023-02-18T11:50:33;99130.91;;;2.91;74.94
70833;BME280;58452;59.418;17.962;2023-02-18T11:52:59;99137.72;;;2.91;75.48
70833;BME280;58452;59.418;17.962;2023-02-18T11:55:28;99172.09;;;2.97;74.18
70833;BME280;58452;59.418;17.962;2023-02-18T11:58:05;99140.56;;;2.97;74.48
70833;BME280;58452;59.418;17.962;2023-02-18T12:02:58;99155.31;;;3.13;74.08
70833;BME280;58452;59.418;17.962;2023-02-18T12:05:27;99169.56;;;3.35;73.06
70833;BME280;58452;59.418;17.962;2023-02-18T12:08:04;99150.47;;;3.49;71.95
70833;BME280;58452;59.418;17.962;2023-02-18T12:10:42;99150.19;;;3.80;71.06
70833;BME280;58452;59.418;17.962;2023-02-18T12:27:31;99178.38;;;3.79;70.13
70833;BME280;58452;59.418;17.962;2023-02-18T12:33:41;99176.78;;;3.78;68.62
70833;BME280;58452;59.418;17.962;2023-02-18T12:44:22;99194.50;;;3.79;69.40
70833;BME280;58452;59.418;17.962;2023-02-18T13:13:35;99211.59;;;4.35;68.47
70833;BME280;58452;59.418;17.962;2023-02-18T13:16:08;99232.19;;;4.24;65.97
70833;BME280;58452;59.418;17.962;2023-02-18T13:18:37;99226.13;;;4.25;66.91
70833;BME280;58452;59.418;17.962;2023-02-18T13:21:15;99226.69;;;4.09;67.16
70833;BME280;58452;59.418;17.962;2023-02-18T13:23:57;99235.31;;;3.99;67.37
70833;BME280;58452;59.418;17.962;2023-02-18T13:26:24;99240.16;;;3.92;65.13
70833;BME280;58452;59.418;17.962;2023-02-18T13:29:18;99231.56;;;3.83;66.35
70833;BME280;58452;59.418;17.962;2023-02-18T13:39:54;99257.91;;;3.84;67.86
70833;BME280;58452;59.418;17.962;2023-02-18T13:42:31;99251.44;;;3.80;67.12
70833;BME280;58452;59.418;17.962;2023-02-18T13:47:42;99262.06;;;3.75;68.12
70833;BME280;58452;59.418;17.962;2023-02-18T13:55:38;99269.44;;;3.59;69.59
70833;BME280;58452;59.418;17.962;2023-02-18T13:58:12;99276.53;;;3.46;70.20
70833;BME280;58452;59.418;17.962;2023-02-18T14:00:40;99280.44;;;3.50;70.11
70833;BME280;58452;59.418;17.962;2023-02-18T14:03:33;99286.22;;;3.52;69.42
70833;BME280;58452;59.418;17.962;2023-02-18T14:06:00;99282.19;;;3.59;67.95
70833;BME280;58452;59.418;17.962;2023-02-18T14:08:38;99295.19;;;3.56;67.64
70833;BME280;58452;59.418;17.962;2023-02-18T14:16:07;99302.50;;;3.70;67.98
70833;BME280;58452;59.418;17.962;2023-02-18T14:31:24;99337.06;;;3.44;66.05
70833;BME280;58452;59.418;17.962;2023-02-18T14:36:52;99335.72;;;3.50;66.88
70833;BME280;58452;59.418;17.962;2023-02-18T14:42:31;99345.38;;;3.46;66.67
70833;BME280;58452;59.418;17.962;2023-02-18T14:50:45;99356.66;;;3.43;66.30
70833;BME280;58452;59.418;17.962;2023-02-18T14:53:18;99361.06;;;3.41;65.00
70833;BME280;58452;59.418;17.962;2023-02-18T14:55:49;99362.84;;;3.41;65.59
70833;BME280;58452;59.418;17.962;2023-02-18T14:58:56;99363.88;;;3.38;65.39
70833;BME280;58452;59.418;17.962;2023-02-18T15:01:23;99370.31;;;3.33;65.47
70833;BME280;58452;59.418;17.962;2023-02-18T15:03:51;99374.91;;;3.39;65.29
70833;BME280;58452;59.418;17.962;2023-02-18T15:08:52;99377.97;;;3.33;66.12
70833;BME280;58452;59.418;17.962;2023-02-18T15:11:20;99390.97;;;3.30;65.23
70833;BME280;58452;59.418;17.962;2023-02-18T15:13:47;99386.63;;;3.21;65.31
70833;BME280;58452;59.418;17.962;2023-02-18T15:16:33;99395.47;;;3.17;66.01
70833;BME280;58452;59.418;17.962;2023-02-18T15:19:04;99399.75;;;3.16;65.58
70833;BME280;58452;59.418;17.962;2023-02-18T15:21:38;99405.66;;;3.17;65.93
70833;BME280;58452;59.418;17.962;2023-02-18T15:24:19;99407.56;;;3.15;65.22
70833;BME280;58452;59.418;17.962;2023-02-18T15:26:48;99418.66;;;3.14;65.98
70833;BME280;58452;59.418;17.962;2023-02-18T15:29:23;99410.75;;;3.17;65.42
70833;BME280;58452;59.418;17.962;2023-02-18T15:31:49;99406.75;;;3.14;64.65
70833;BME280;58452;59.418;17.962;2023-02-18T15:34:37;99419.59;;;3.13;64.69
70833;BME280;58452;59.418;17.962;2023-02-18T15:37:05;99419.31;;;3.06;64.43
70833;BME280;58452;59.418;17.962;2023-02-18T15:39:31;99428.13;;;3.02;63.47
70833;BME280;58452;59.418;17.962;2023-02-18T15:42:25;99439.75;;;2.95;63.81
70833;BME280;58452;59.418;17.962;2023-02-18T15:44:57;99445.22;;;2.90;63.92
70833;BME280;58452;59.418;17.962;2023-02-18T15:47:25;99436.91;;;2.88;64.53
70833;BME280;58452;59.418;17.962;2023-02-18T15:49:54;99450.81;;;2.84;64.12
70833;BME280;58452;59.418;17.962;2023-02-18T15:52:29;99450.81;;;2.84;64.48
70833;BME280;58452;59.418;17.962;2023-02-18T15:55:00;99461.53;;;2.78;64.47